DIRECCIÓN GENERAL DE AERONÁUTICA CIVIL
DIRECCIÓN METEOROLÓGICA DE CHILE
INFORMACIÓN METAR Y TAF

FIR PUERTO MONTT

Estación: SCQP
METAR SCQP 220300Z 25004KT 9999 OVC006 13/12 Q1018=

TAF SCQP 212240Z 2200/2300 25007KT 9999 SCT020 TN08/2210Z TX19/2219Z BECMG 2202/2204 VRB01KT BKN015 TEMPO 2206/2212 0500 FG VV/// BECMG 2216/2218 22008KT SCT030=

Estación: SCVD
METAR SCVD 220300Z AUTO 00000KT 9999 BKN009 OVC014 12/11 Q1018=

TAF SCVD 211630Z 2118/2206 33010KT 9999 BKN030 TX19/2119Z TN13/2206Z BECMG 2122/2200 BKN015 PROB40 TEMPO 2202/2206 5000 -DZ OVC010=

Estación: SCJO
METAR SCJO 212200Z 30008KT 9999 BKN030 OVC100 17/12 Q1015=

TAF SCJO 211630Z 2118/2206 33008KT 9999 SCT020 BKN030 TX18/2119Z TN13 /2206Z BECMG 2201/2203 VRB02KT 7000 -RA OVC015=

Estación: SCTE
METAR SCTE 220300Z 33005KT 9999 OVC040 13/12 Q1016 NOSIG=

TAF SCTE 212240Z 2200/2300 31010KT 9999 BKN040 TN10/2210Z TX17/2218Z TEMPO 2202/2206 7000 -RA OVC020 BECMG 2210/2212 28004KT BECMG 2216/ 2218 SCT050=

Estación: SCPQ
METAR SCPQ 220300Z AUTO 35011KT //// R35/P2000N FEW002 BKN026 OVC032 11/11 Q1013=

TAF SCPQ 211630Z 2118/2206 35017KT 3000 -DZ BKN005 OVC015 TX15/2119Z TN11/2206Z BECMG 2121/2123 6000 SCT008 OVC020 BECMG 2202/2204 30008KT 9999 BKN015=

Estación: SCON
METAR SCON 212000Z 29004KT 220V030 9999 OVC020 15/11 Q1011=

TAF SCON 211630Z 2118/2206 32012KT 5000 -DZ BKN008 OVC015 TX16/2118Z TN11/2206Z BECMG 2121/2123 8000 SCT010 BKN020=

Estación: SCTN
NIL=

NIL=

Estación: SCFT
METAR SCFT 220300Z AUTO VRB02KT 4400 +RA 10/09 Q1012=

NIL=

Estación: SCAP
METAR SCAP 220300Z AUTO VRB01KT //// // BKN013 OVC026 11/09 Q1017=

NIL=

Estación: SCMK
METAR SCMK 212100Z 33006KT 9999 BKN006 OVC012 13/10 Q1010=

TAF SCMK 211630Z 2118/2206 32015G27KT 7000 -RA BKN008 OVC015 TX15/ 2118Z TN10/2206Z BECMG 2121/2123 9999 SCT010 BKN020=

Estación: SCAS
METAR SCAS 212000Z 36010KT 9999 BKN036 SCT100 15/07 Q1007=

NIL=

Estación: SCCY
METAR SCCY 220000Z 11003KT 9999 BKN036 11/05 Q1008=

TAF SCCY 211630Z 2118/2206 26008KT 8000 -RA BKN035 TX12/2119Z TN08/ 2206Z=

Estación: SCBA
METAR SCBA 220300Z AUTO 29010KT CAVOK 07/03 Q1009=

TAF SCBA 212240Z 2200/2300 30018G29KT 9999 SCT030 BKN060 TN04/2210Z TX14/2219Z BECMG 2218/2220 SCT050=

Estación: SCCC
METAR SCCC 220000Z AUTO 28012KT CAVOK 11/02 Q1006=

NIL=

Estación: SCHR
METAR SCHR 220000Z AUTO 32007KT 290V350 9999 ////// 12/02 Q1002=

TAF SCHR 211011Z 2112/2200 35008KT 8000 -RA BKN040 TN07/2112Z TX13/2118Z TEMPO 2112/2116 6000 -RA BR BKN010 BECMG 2116/2118 32012KT 7000 -SHRA -RA SCT025=


Volver